createdAt,value
2022-10-17T00:03:36.965Z,61.80
2022-10-17T00:08:58.795Z,60.08
2022-10-17T00:14:22.634Z,57.25
2022-10-17T00:19:44.438Z,63.15
2022-10-17T00:25:06.277Z,63.97
2022-10-17T00:30:28.107Z,59.55
2022-10-17T00:35:49.919Z,63.03
2022-10-17T00:41:11.728Z,67.63
2022-10-17T00:46:33.532Z,62.47
2022-10-17T00:51:55.346Z,60.47
2022-10-17T00:57:17.172Z,71.45
2022-10-17T01:02:38.994Z,65.55
2022-10-17T01:08:00.816Z,63.00
2022-10-17T01:13:22.617Z,57.67
2022-10-17T01:18:44.446Z,56.88
2022-10-17T01:24:06.255Z,56.60
2022-10-17T01:29:28.070Z,52.15
2022-10-17T01:34:49.886Z,58.85
2022-10-17T01:40:11.725Z,67.20
2022-10-17T01:45:33.539Z,68.35
2022-10-17T01:50:55.363Z,57.53
2022-10-17T01:56:17.188Z,61.70
2022-10-17T02:01:39.054Z,59.20
2022-10-17T02:07:01.109Z,64.35
2022-10-17T02:12:22.932Z,63.42
2022-10-17T02:17:44.765Z,63.20
2022-10-17T02:23:06.673Z,63.17
2022-10-17T02:28:28.655Z,65.03
2022-10-17T02:33:50.558Z,65.22
2022-10-17T02:39:12.400Z,68.32
2022-10-17T02:44:34.236Z,67.18
2022-10-17T02:49:56.042Z,69.07
2022-10-17T02:55:17.839Z,59.63
2022-10-17T03:00:42.023Z,62.72
2022-10-17T03:06:03.842Z,60.72
2022-10-17T03:11:25.686Z,65.60
2022-10-17T03:16:47.514Z,60.85
2022-10-17T03:22:09.379Z,61.72
2022-10-17T03:27:31.604Z,57.30
2022-10-17T03:32:53.646Z,63.47
2022-10-17T03:38:15.461Z,61.55
2022-10-17T03:43:37.259Z,65.13
2022-10-17T03:48:59.068Z,61.08
2022-10-17T03:54:20.896Z,69.43
2022-10-17T03:59:42.701Z,65.53
2022-10-17T04:05:04.522Z,65.47
2022-10-17T04:10:26.339Z,61.22
2022-10-17T04:15:48.165Z,67.63
2022-10-17T04:21:09.978Z,63.67
2022-10-17T04:26:31.800Z,63.92
2022-10-17T04:31:53.615Z,64.70
2022-10-17T04:37:15.436Z,73.53
2022-10-17T04:42:37.232Z,65.43
2022-10-17T04:47:59.036Z,67.15
2022-10-17T04:53:20.829Z,70.22
2022-10-17T04:58:42.631Z,66.50
2022-10-17T05:04:04.467Z,65.82
2022-10-17T05:09:26.288Z,66.63
2022-10-17T05:14:48.093Z,69.50
2022-10-17T05:20:09.896Z,63.55
2022-10-17T05:25:31.727Z,62.05
2022-10-17T05:30:53.551Z,64.13
2022-10-17T05:36:15.374Z,63.53
2022-10-17T05:41:37.177Z,66.28
2022-10-17T05:46:58.981Z,69.82
2022-10-17T05:52:20.790Z,69.13
2022-10-17T05:57:42.605Z,63.72
2022-10-17T06:03:04.435Z,76.78
2022-10-17T06:08:26.243Z,70.57
2022-10-17T06:13:48.049Z,63.17
2022-10-17T06:19:09.852Z,57.92
2022-10-17T06:24:31.673Z,61.08
2022-10-17T06:29:53.484Z,52.63
2022-10-17T06:35:15.297Z,48.13
2022-10-17T06:40:37.100Z,48.13
2022-10-17T06:45:58.922Z,45.58
2022-10-17T06:51:20.731Z,38.83
2022-10-17T06:56:42.528Z,38.08
2022-10-17T07:02:04.336Z,37.85
2022-10-17T07:07:26.257Z,34.30
2022-10-17T07:12:48.141Z,37.40
2022-10-17T07:18:09.941Z,38.33
2022-10-17T07:23:31.767Z,34.40
2022-10-17T07:28:53.664Z,32.25
2022-10-17T07:34:15.537Z,39.38
2022-10-17T07:39:37.343Z,34.13
2022-10-17T07:44:59.155Z,33.17
2022-10-17T07:50:20.955Z,28.15
2022-10-17T07:55:42.771Z,31.40
2022-10-17T08:01:05.331Z,31.27
2022-10-17T08:06:28.488Z,30.08
2022-10-17T08:11:50.300Z,29.08
2022-10-17T08:17:12.237Z,29.30
2022-10-17T08:22:34.055Z,27.52
2022-10-17T08:27:55.936Z,29.02
2022-10-17T08:33:17.774Z,25.60
2022-10-17T08:38:42.911Z,27.65
2022-10-17T08:44:05.386Z,25.02
2022-10-17T08:49:27.217Z,24.45
2022-10-17T08:54:49.034Z,24.15
2022-10-17T09:00:09.803Z,28.85
2022-10-17T09:05:11.920Z,25.58
2022-10-17T09:10:13.447Z,27.73
2022-10-17T09:20:29.679Z,24.88
2022-10-17T09:25:31.446Z,23.58
2022-10-17T09:30:44.650Z,21.77
2022-10-17T09:35:47.149Z,21.05
2022-10-17T09:40:54.836Z,18.67
2022-10-17T09:45:58.495Z,18.02
2022-10-17T09:51:14.558Z,17.92
2022-10-17T09:56:21.734Z,17.98
2022-10-17T10:01:24.386Z,17.52
2022-10-17T10:06:26.204Z,20.38
2022-10-17T10:11:27.789Z,16.02
2022-10-17T10:16:29.304Z,16.20
2022-10-17T10:21:30.831Z,15.82
2022-10-17T10:26:32.356Z,18.42
2022-10-17T10:31:34.146Z,18.80
2022-10-17T10:41:38.607Z,17.38
2022-10-17T10:46:40.323Z,17.35
2022-10-17T10:51:42.101Z,14.98
2022-10-17T10:56:43.868Z,16.23
2022-10-17T11:01:45.415Z,15.55
2022-10-17T11:06:47.040Z,16.58
2022-10-17T11:11:50.996Z,16.83
2022-10-17T11:16:52.519Z,14.25
2022-10-17T11:21:54.058Z,17.77
2022-10-17T11:26:55.635Z,14.75
2022-10-17T11:31:57.171Z,15.77
2022-10-17T11:36:58.818Z,15.68
2022-10-17T11:42:03.324Z,15.68
2022-10-17T11:47:05.772Z,13.95
2022-10-17T11:52:07.285Z,14.32
2022-10-17T11:57:12.675Z,13.48
2022-10-17T12:02:15.738Z,12.63
2022-10-17T12:07:17.497Z,17.17
2022-10-17T12:12:19.265Z,14.55
2022-10-17T12:17:21.210Z,11.65
2022-10-17T12:22:22.758Z,14.90
2022-10-17T12:27:24.284Z,11.73
2022-10-17T12:32:30.217Z,10.85
2022-10-17T12:37:34.912Z,12.00
2022-10-17T12:42:36.672Z,14.68
2022-10-17T12:47:38.217Z,14.75
2022-10-17T12:52:40.217Z,13.68
2022-10-17T12:57:41.931Z,12.35
2022-10-17T13:02:43.504Z,14.38
2022-10-17T13:07:45.270Z,14.05
2022-10-17T13:12:46.869Z,11.27
2022-10-17T13:17:48.625Z,10.98
2022-10-17T13:22:50.371Z,11.38
2022-10-17T13:27:51.946Z,12.95
2022-10-17T13:32:53.573Z,12.43
2022-10-17T13:37:55.331Z,11.10
2022-10-17T13:42:57.125Z,9.77
2022-10-17T13:47:58.654Z,10.50
2022-10-17T13:53:00.299Z,13.05
2022-10-17T13:58:02.037Z,10.07
2022-10-17T14:03:03.798Z,9.70
2022-10-17T14:08:12.106Z,8.57
2022-10-17T14:13:15.467Z,10.43
2022-10-17T14:18:17.207Z,13.60
2022-10-17T14:23:22.733Z,8.75
2022-10-17T14:28:24.811Z,10.77
2022-10-17T14:33:26.541Z,12.18
2022-10-17T14:38:28.271Z,12.00
2022-10-17T14:43:29.902Z,12.18
2022-10-17T14:48:31.483Z,12.68
2022-10-17T14:53:33.232Z,11.15
2022-10-17T14:58:34.766Z,11.15
2022-10-17T15:03:36.487Z,9.90
2022-10-17T15:08:38.280Z,11.02
2022-10-17T15:13:43.405Z,13.90
2022-10-17T15:18:47.367Z,11.77
2022-10-17T15:23:49.084Z,11.27
2022-10-17T15:28:50.892Z,14.27
2022-10-17T15:33:52.461Z,13.88
2022-10-17T15:38:54.070Z,13.60
2022-10-17T15:43:55.793Z,15.57
2022-10-17T15:48:57.364Z,12.57
2022-10-17T15:53:59.005Z,12.43
2022-10-17T15:59:00.645Z,11.77
2022-10-17T16:04:02.187Z,13.48
2022-10-17T16:09:03.945Z,13.18
2022-10-17T16:14:05.508Z,13.20
2022-10-17T16:19:07.040Z,13.30
2022-10-17T16:24:08.587Z,13.55
2022-10-17T16:29:10.290Z,14.98
2022-10-17T16:34:11.910Z,16.27
2022-10-17T16:39:13.664Z,13.02
2022-10-17T16:44:15.392Z,13.25
2022-10-17T16:49:17.317Z,14.88
2022-10-17T16:54:18.886Z,23.45
2022-10-17T16:59:20.423Z,15.93
2022-10-17T17:04:22.085Z,12.75
2022-10-17T17:09:23.735Z,12.63
2022-10-17T17:14:25.380Z,15.13
2022-10-17T17:19:27.226Z,15.23
2022-10-17T17:24:29.103Z,18.25
2022-10-17T17:29:30.665Z,18.02
2022-10-17T17:34:32.332Z,19.60
2022-10-17T17:39:34.256Z,15.63
2022-10-17T17:44:35.903Z,19.55
2022-10-17T17:49:37.446Z,13.70
2022-10-17T17:54:40.943Z,15.70
2022-10-17T17:59:42.753Z,15.18
2022-10-17T18:04:44.525Z,14.05
2022-10-17T18:09:46.278Z,14.80
2022-10-17T18:14:48.004Z,13.30
2022-10-17T18:19:49.934Z,16.15
2022-10-17T18:24:51.436Z,14.73
2022-10-17T18:29:52.959Z,15.18
2022-10-17T18:34:54.575Z,15.65
2022-10-17T18:39:56.102Z,17.30
2022-10-17T18:44:57.855Z,14.15
2022-10-17T18:49:59.911Z,18.83
2022-10-17T18:55:01.454Z,18.88
2022-10-17T19:00:03.175Z,18.60
2022-10-17T19:05:04.913Z,19.35
2022-10-17T19:10:06.695Z,13.73
2022-10-17T19:15:08.434Z,15.73
2022-10-17T19:20:10.189Z,15.35
2022-10-17T19:25:11.936Z,19.98
2022-10-17T19:30:13.789Z,21.30
2022-10-17T19:35:15.384Z,16.40
2022-10-17T19:40:16.931Z,19.33
2022-10-17T19:45:18.656Z,19.95
2022-10-17T19:50:20.394Z,19.63
2022-10-17T19:55:21.991Z,23.40
2022-10-17T20:00:23.545Z,17.55
2022-10-17T20:05:28.015Z,18.05
2022-10-17T20:10:30.003Z,16.88
2022-10-17T20:15:31.740Z,19.15
2022-10-17T20:20:33.430Z,15.48
2022-10-17T20:25:35.187Z,16.23
2022-10-17T20:30:36.732Z,15.55
2022-10-17T20:35:38.471Z,16.60
2022-10-17T20:40:40.137Z,20.88
2022-10-17T20:45:51.527Z,21.67
2022-10-17T20:50:53.775Z,17.70
2022-10-17T20:55:55.260Z,16.00
2022-10-17T21:00:56.859Z,20.70
2022-10-17T21:05:58.414Z,18.05
2022-10-17T21:11:00.172Z,19.10
2022-10-17T21:16:01.672Z,17.73
2022-10-17T21:26:05.871Z,16.48
2022-10-17T21:31:07.511Z,16.35
2022-10-17T21:36:11.291Z,18.38
2022-10-17T21:41:12.808Z,16.58
2022-10-17T21:46:14.686Z,14.25
2022-10-17T21:51:16.375Z,16.75
2022-10-17T21:56:18.147Z,17.45
2022-10-17T22:01:19.711Z,15.35
2022-10-17T22:11:42.846Z,13.80
2022-10-17T22:16:44.573Z,15.32
2022-10-17T22:21:46.341Z,13.50
2022-10-17T22:26:48.079Z,12.70
2022-10-17T22:31:49.599Z,13.23
2022-10-17T22:36:51.279Z,15.73
2022-10-17T22:41:53.056Z,15.27
2022-10-17T22:46:54.578Z,17.05
2022-10-17T22:51:56.081Z,12.00
2022-10-17T22:56:57.698Z,15.90
2022-10-17T23:01:59.504Z,17.17
2022-10-17T23:07:01.176Z,13.32
2022-10-17T23:12:02.939Z,14.57
2022-10-17T23:17:04.688Z,13.80
2022-10-17T23:22:06.446Z,15.85
2022-10-17T23:27:07.960Z,15.60
2022-10-17T23:32:09.657Z,16.17
2022-10-17T23:37:11.195Z,15.77
2022-10-17T23:42:12.860Z,15.32
2022-10-17T23:47:14.608Z,13.07
2022-10-17T23:52:16.344Z,16.65
2022-10-17T23:57:18.103Z,16.83
